createdAt,value
2022-11-30T00:01:01.548Z,100966.55
2022-11-30T00:03:32.288Z,100970.49
2022-11-30T00:06:08.914Z,100967.02
2022-11-30T00:08:39.660Z,100966.85
2022-11-30T00:11:17.743Z,100966.85
2022-11-30T00:13:48.529Z,100972.89
2022-11-30T00:16:19.295Z,100972.92
2022-11-30T00:18:50.392Z,100975.40
2022-11-30T00:21:21.233Z,100976.50
2022-11-30T00:23:51.989Z,100976.26
2022-11-30T00:26:23.325Z,100976.61
2022-11-30T00:28:54.322Z,100974.69
2022-11-30T00:31:24.955Z,100973.30
2022-11-30T00:33:55.758Z,100974.69
2022-11-30T00:36:26.420Z,100975.08
2022-11-30T00:38:57.058Z,100973.48
2022-11-30T00:41:27.699Z,100976.50
2022-11-30T00:43:58.345Z,100980.01
2022-11-30T00:46:28.954Z,100977.02
2022-11-30T00:48:59.761Z,100979.34
2022-11-30T00:51:30.479Z,100976.99
2022-11-30T00:54:01.127Z,100978.70
2022-11-30T00:56:31.823Z,100980.17
2022-11-30T00:59:02.491Z,100977.70
2022-11-30T01:01:33.161Z,100975.33
2022-11-30T01:04:04.516Z,100972.77
2022-11-30T01:06:35.172Z,100971.42
2022-11-30T01:09:06.546Z,100973.02
2022-11-30T01:11:37.298Z,100974.77
2022-11-30T01:14:08.109Z,100974.73
2022-11-30T01:16:38.996Z,100974.93
2022-11-30T01:19:09.721Z,100975.73
2022-11-30T01:21:41.096Z,100976.83
2022-11-30T01:24:13.242Z,100972.84
2022-11-30T01:26:43.806Z,100971.00
2022-11-30T01:29:14.437Z,100968.27
2022-11-30T01:31:45.068Z,100973.81
2022-11-30T01:34:15.848Z,100974.41
2022-11-30T01:36:48.624Z,100970.30
2022-11-30T01:39:19.409Z,100970.69
2022-11-30T01:41:50.118Z,100970.09
2022-11-30T01:44:52.910Z,100968.79
2022-11-30T01:47:29.584Z,100973.35
2022-11-30T01:50:06.005Z,100972.34
2022-11-30T01:52:39.765Z,100972.09
2022-11-30T01:55:19.875Z,100974.52
2022-11-30T01:57:52.673Z,100973.73
2022-11-30T02:00:24.444Z,100972.67
2022-11-30T02:03:01.541Z,100976.75
2022-11-30T02:05:32.644Z,100976.13
2022-11-30T02:08:03.900Z,100976.20
2022-11-30T02:10:38.221Z,100973.73
2022-11-30T02:13:35.928Z,100974.03
2022-11-30T02:16:18.756Z,100978.94
2022-11-30T02:19:00.761Z,100977.79
2022-11-30T02:21:41.601Z,100977.24
2022-11-30T02:24:36.375Z,100982.23
2022-11-30T02:27:16.138Z,100981.94
2022-11-30T02:29:50.773Z,100986.10
2022-11-30T02:32:26.969Z,100989.27
2022-11-30T02:34:59.673Z,100986.83
2022-11-30T02:37:31.174Z,100990.11
2022-11-30T02:40:02.473Z,100992.17
2022-11-30T02:42:33.124Z,100990.10
2022-11-30T02:45:04.260Z,100987.81
2022-11-30T02:47:41.911Z,100987.80
2022-11-30T02:50:16.586Z,100968.04
2022-11-30T02:52:48.039Z,100982.27
2022-11-30T02:55:20.912Z,100983.94
2022-11-30T02:57:51.646Z,100986.38
2022-11-30T03:00:23.572Z,100986.25
2022-11-30T03:02:55.087Z,100988.92
2022-11-30T03:05:25.835Z,100992.06
2022-11-30T03:07:56.639Z,100997.48
2022-11-30T03:10:27.394Z,100997.77
2022-11-30T03:13:01.452Z,100999.06
2022-11-30T03:15:32.164Z,101006.23
2022-11-30T03:18:05.996Z,101002.49
2022-11-30T03:20:36.605Z,101005.59
2022-11-30T03:23:07.168Z,101009.70
2022-11-30T03:25:37.779Z,101010.70
2022-11-30T03:28:08.533Z,101014.42
2022-11-30T03:30:39.138Z,101014.56
2022-11-30T03:33:09.848Z,101011.86
2022-11-30T03:35:40.601Z,101012.39
2022-11-30T03:38:11.682Z,101010.48
2022-11-30T03:40:42.371Z,101014.58
2022-11-30T03:43:13.184Z,101011.21
2022-11-30T03:45:47.657Z,101015.38
2022-11-30T03:48:18.272Z,101015.40
2022-11-30T03:50:50.225Z,101017.34
2022-11-30T03:53:22.305Z,101017.17
2022-11-30T03:55:56.971Z,101023.29
2022-11-30T03:58:28.099Z,101023.34
2022-11-30T04:01:04.175Z,101026.22
2022-11-30T04:03:35.365Z,101026.20
2022-11-30T04:06:07.964Z,101023.41
2022-11-30T04:08:39.239Z,101023.23
2022-11-30T04:11:10.729Z,101021.59
2022-11-30T04:13:44.269Z,101023.75
2022-11-30T04:16:14.937Z,101022.61
2022-11-30T04:18:45.733Z,101022.61
2022-11-30T04:21:16.354Z,101022.84
2022-11-30T04:23:47.090Z,101022.80
2022-11-30T04:26:18.990Z,101022.50
2022-11-30T04:28:49.669Z,101025.30
2022-11-30T04:31:20.354Z,101022.52
2022-11-30T04:33:53.568Z,101024.98
2022-11-30T04:36:24.241Z,101025.42
2022-11-30T04:38:54.839Z,101029.02
2022-11-30T04:41:25.581Z,101024.86
2022-11-30T04:43:56.597Z,101015.25
2022-11-30T04:46:27.452Z,101025.20
2022-11-30T04:48:58.290Z,101026.61
2022-11-30T04:51:28.911Z,101023.45
2022-11-30T04:53:59.612Z,101025.04
2022-11-30T04:56:38.635Z,101024.45
2022-11-30T04:59:08.126Z,101025.48
2022-11-30T05:01:41.637Z,101031.73
2022-11-30T05:04:12.280Z,101030.70
2022-11-30T05:06:43.088Z,101032.96
2022-11-30T05:09:13.758Z,101034.77
2022-11-30T05:11:44.358Z,101037.19
2022-11-30T05:14:15.194Z,101043.55
2022-11-30T05:16:47.909Z,101044.21
2022-11-30T05:19:18.576Z,101045.43
2022-11-30T05:21:49.177Z,101046.98
2022-11-30T05:24:19.922Z,101051.85
2022-11-30T05:26:50.686Z,101055.80
2022-11-30T05:29:21.349Z,101055.11
2022-11-30T05:31:52.050Z,101057.05
2022-11-30T05:34:22.707Z,101063.70
2022-11-30T05:36:53.534Z,101067.85
2022-11-30T05:39:24.101Z,101065.09
2022-11-30T05:41:55.074Z,101069.11
2022-11-30T05:44:25.803Z,101068.02
2022-11-30T05:46:56.815Z,101071.60
2022-11-30T05:49:27.614Z,101073.94
2022-11-30T05:51:58.274Z,101075.59
2022-11-30T05:54:28.976Z,101076.60
2022-11-30T05:56:59.615Z,101077.95
2022-11-30T05:59:30.283Z,101078.92
2022-11-30T06:02:00.994Z,101082.90
2022-11-30T06:04:32.115Z,101080.23
2022-11-30T06:07:03.005Z,101083.73
2022-11-30T06:09:33.606Z,101085.83
2022-11-30T06:12:04.322Z,101090.20
2022-11-30T06:14:35.063Z,101092.39
2022-11-30T06:17:05.894Z,101086.89
2022-11-30T06:19:36.902Z,101091.68
2022-11-30T06:22:07.520Z,101085.71
2022-11-30T06:24:38.161Z,101096.42
2022-11-30T06:27:08.727Z,101095.45
2022-11-30T06:29:39.407Z,101094.73
2022-11-30T06:32:10.769Z,101098.05
2022-11-30T06:34:41.491Z,101096.45
2022-11-30T06:37:12.278Z,101096.42
2022-11-30T06:40:05.569Z,101098.61
2022-11-30T06:42:33.931Z,101097.80
2022-11-30T06:45:05.476Z,101101.52
2022-11-30T06:47:36.169Z,101099.39
2022-11-30T06:50:09.700Z,101100.52
2022-11-30T06:52:40.394Z,101102.22
2022-11-30T06:55:11.936Z,101100.20
2022-11-30T06:57:42.828Z,101104.95
2022-11-30T07:00:15.637Z,101107.92
2022-11-30T07:02:46.484Z,101108.30
2022-11-30T07:05:17.312Z,101114.89
2022-11-30T07:07:48.609Z,101123.19
2022-11-30T07:10:20.366Z,101120.23
2022-11-30T07:12:51.550Z,101124.91
2022-11-30T07:15:22.208Z,101130.23
2022-11-30T07:17:52.911Z,101134.42
2022-11-30T07:20:23.586Z,101136.48
2022-11-30T07:22:57.784Z,101138.30
2022-11-30T07:25:45.955Z,101139.11
2022-11-30T07:28:16.597Z,101144.35
2022-11-30T07:30:47.420Z,101142.98
2022-11-30T07:33:18.060Z,101145.54
2022-11-30T07:35:48.694Z,101147.31
2022-11-30T07:38:19.340Z,101148.77
2022-11-30T07:40:50.023Z,101148.46
2022-11-30T07:43:20.578Z,101147.63
2022-11-30T07:45:56.219Z,101148.17
2022-11-30T07:48:27.112Z,101146.36
2022-11-30T07:51:02.511Z,101149.59
2022-11-30T07:53:33.129Z,101149.95
2022-11-30T07:56:09.984Z,101147.94
2022-11-30T07:58:41.625Z,101149.09
2022-11-30T08:01:15.123Z,101149.77
2022-11-30T08:03:46.217Z,101147.20
2022-11-30T08:06:20.119Z,101148.45
2022-11-30T08:08:52.615Z,101150.63
2022-11-30T08:11:25.274Z,101151.95
2022-11-30T08:13:56.296Z,101147.81
2022-11-30T08:16:29.181Z,101147.40
2022-11-30T08:18:58.869Z,101147.43
2022-11-30T08:21:29.471Z,101147.54
2022-11-30T08:24:00.220Z,101151.67
2022-11-30T08:26:32.894Z,101155.24
2022-11-30T08:29:03.873Z,101149.70
2022-11-30T08:31:37.355Z,101157.61
2022-11-30T08:34:10.652Z,101155.30
2022-11-30T08:36:43.398Z,101156.36
2022-11-30T08:39:15.608Z,101161.79
2022-11-30T08:41:46.330Z,101164.63
2022-11-30T08:44:16.926Z,101165.09
2022-11-30T08:49:38.512Z,101173.09
2022-11-30T08:52:18.166Z,101172.85
2022-11-30T08:54:50.618Z,101179.10
2022-11-30T08:57:22.811Z,101182.67
2022-11-30T08:59:53.505Z,101184.92
2022-11-30T09:02:24.426Z,101182.20
2022-11-30T09:04:55.179Z,101179.13
2022-11-30T09:07:25.957Z,101190.11
2022-11-30T09:09:56.860Z,101189.44
2022-11-30T09:12:27.575Z,101188.81
2022-11-30T09:14:58.853Z,101185.67
2022-11-30T09:17:30.059Z,101185.23
2022-11-30T09:20:02.446Z,101186.75
2022-11-30T09:22:33.312Z,101186.36
2022-11-30T09:25:03.963Z,101187.87
2022-11-30T09:27:35.832Z,101188.45
2022-11-30T09:30:08.688Z,101190.74
2022-11-30T09:32:39.537Z,101189.50
2022-11-30T09:35:12.903Z,101194.33
2022-11-30T09:37:43.959Z,101187.30
2022-11-30T09:40:16.677Z,101187.73
2022-11-30T09:42:58.685Z,101187.68
2022-11-30T09:45:32.838Z,101188.11
2022-11-30T09:48:26.472Z,101189.48
2022-11-30T09:51:01.111Z,101189.00
2022-11-30T09:53:39.608Z,101191.19
2022-11-30T09:56:20.942Z,101187.11
2022-11-30T09:58:57.423Z,101185.20
2022-11-30T10:01:32.000Z,101185.43
2022-11-30T10:04:03.877Z,101176.83
2022-11-30T10:06:44.229Z,101182.73
2022-11-30T10:09:30.768Z,101177.39
2022-11-30T10:12:07.101Z,101176.63
2022-11-30T10:15:06.676Z,101178.66
2022-11-30T10:17:44.275Z,101176.77
2022-11-30T10:20:28.007Z,101182.92
2022-11-30T10:23:11.923Z,101178.66
2022-11-30T10:25:52.336Z,101181.10
2022-11-30T10:31:21.423Z,101186.20
2022-11-30T10:33:53.726Z,101182.27
2022-11-30T10:36:31.042Z,101181.73
2022-11-30T10:39:04.512Z,101180.29
2022-11-30T10:41:44.645Z,101177.15
2022-11-30T10:44:23.119Z,101173.84
2022-11-30T10:47:00.656Z,101173.71
2022-11-30T10:49:33.963Z,101175.19
2022-11-30T10:52:09.715Z,101174.30
2022-11-30T10:54:40.473Z,101172.20
2022-11-30T10:57:14.508Z,101168.81
2022-11-30T10:59:49.167Z,101170.74
2022-11-30T11:02:45.765Z,101171.13
2022-11-30T11:05:23.795Z,101172.20
2022-11-30T11:08:04.375Z,101172.14
2022-11-30T11:10:46.884Z,101172.41
2022-11-30T11:13:21.687Z,101172.78
2022-11-30T11:16:01.812Z,101175.04
2022-11-30T11:18:33.854Z,101169.78
2022-11-30T11:21:08.009Z,101169.88
2022-11-30T11:23:41.669Z,101170.60
2022-11-30T11:26:21.438Z,101168.20
2022-11-30T11:28:53.694Z,101162.20
2022-11-30T11:31:37.371Z,101161.23
2022-11-30T11:34:24.855Z,101164.79
2022-11-30T11:37:08.090Z,101162.59
2022-11-30T11:39:38.688Z,101160.95
2022-11-30T11:42:22.746Z,101158.49
2022-11-30T11:44:56.902Z,101160.14
2022-11-30T11:47:30.094Z,101160.49
2022-11-30T11:50:58.308Z,101159.18
2022-11-30T11:53:25.755Z,101159.29
2022-11-30T11:56:01.022Z,101157.63
2022-11-30T11:58:43.247Z,101155.80
2022-11-30T12:04:41.185Z,101156.47
2022-11-30T12:07:22.166Z,101154.64
2022-11-30T12:10:09.601Z,101156.40
2022-11-30T12:12:55.098Z,101162.18
2022-11-30T12:15:33.482Z,101158.02
2022-11-30T12:18:23.594Z,101157.26
2022-11-30T12:21:01.661Z,101160.40
2022-11-30T12:23:56.368Z,101159.94
2022-11-30T12:26:35.776Z,101155.85
2022-11-30T12:29:24.598Z,101158.61
2022-11-30T12:32:12.079Z,101158.14
2022-11-30T12:34:57.421Z,101149.25
2022-11-30T12:37:37.480Z,101161.59
2022-11-30T12:40:27.607Z,101155.02
2022-11-30T12:43:08.221Z,101156.05
2022-11-30T12:45:43.621Z,101158.70
2022-11-30T12:48:26.639Z,101159.58
2022-11-30T12:51:12.194Z,101166.92
2022-11-30T12:53:49.817Z,101166.67
2022-11-30T12:56:31.835Z,101160.59
2022-11-30T12:59:15.592Z,101161.42
2022-11-30T13:02:09.978Z,101163.48
2022-11-30T13:04:45.262Z,101164.42
2022-11-30T13:07:26.839Z,101163.36
2022-11-30T13:10:04.068Z,101159.29
2022-11-30T13:12:38.369Z,101159.46
2022-11-30T13:15:15.901Z,101158.48
2022-11-30T13:17:48.080Z,101160.45
2022-11-30T13:20:24.866Z,101157.84
2022-11-30T13:23:00.685Z,101157.30
2022-11-30T13:28:41.019Z,101157.48
2022-11-30T13:31:18.727Z,101160.36
2022-11-30T13:33:57.804Z,101161.73
2022-11-30T13:36:31.942Z,101165.05
2022-11-30T13:39:29.043Z,101166.81
2022-11-30T13:42:15.992Z,101167.20
2022-11-30T13:44:47.547Z,101165.79
2022-11-30T13:47:28.378Z,101167.58
2022-11-30T13:50:00.777Z,101170.70
2022-11-30T13:53:02.450Z,101172.38
2022-11-30T13:55:53.855Z,101171.63
2022-11-30T13:58:24.889Z,101178.61
2022-11-30T14:01:30.699Z,101181.69
2022-11-30T14:04:31.785Z,101186.05
2022-11-30T14:07:02.577Z,101184.38
2022-11-30T14:10:01.888Z,101192.11
2022-11-30T14:12:48.599Z,101187.83
2022-11-30T14:15:46.607Z,101190.16
2022-11-30T14:18:26.102Z,101188.03
2022-11-30T14:20:59.212Z,101189.38
2022-11-30T14:23:34.678Z,101189.17
2022-11-30T14:26:11.091Z,101191.77
2022-11-30T14:28:51.351Z,101192.58
2022-11-30T14:31:25.995Z,101190.42
2022-11-30T14:33:59.950Z,101194.16
2022-11-30T14:36:41.333Z,101198.41
2022-11-30T14:42:22.714Z,101191.83
2022-11-30T14:44:53.647Z,101192.82
2022-11-30T14:47:29.806Z,101189.26
2022-11-30T14:50:02.986Z,101191.80
2022-11-30T14:52:59.760Z,101187.53
2022-11-30T14:55:37.279Z,101191.43
2022-11-30T14:58:19.143Z,101190.29
2022-11-30T15:00:51.050Z,101192.05
2022-11-30T15:03:27.244Z,101196.19
2022-11-30T15:06:00.442Z,101198.11
2022-11-30T15:08:39.401Z,101199.02
2022-11-30T15:11:13.007Z,101197.80
2022-11-30T15:13:46.208Z,101195.44
2022-11-30T15:16:22.777Z,101196.98
2022-11-30T15:18:55.490Z,101200.98
2022-11-30T15:21:28.811Z,101204.11
2022-11-30T15:24:00.811Z,101207.08
2022-11-30T15:26:37.807Z,101201.15
2022-11-30T15:29:13.916Z,101209.39
2022-11-30T15:31:47.081Z,101206.70
2022-11-30T15:34:23.126Z,101204.73
2022-11-30T15:36:56.771Z,101211.11
2022-11-30T15:39:30.348Z,101209.73
2022-11-30T15:42:02.746Z,101209.61
2022-11-30T15:44:45.453Z,101208.35
2022-11-30T15:47:32.880Z,101207.55
2022-11-30T15:50:04.455Z,101207.00
2022-11-30T15:52:36.384Z,101205.14
2022-11-30T15:55:29.913Z,101209.89
2022-11-30T15:58:03.255Z,101207.71
2022-11-30T16:00:33.998Z,101211.02
2022-11-30T16:03:13.209Z,101213.42
2022-11-30T16:05:58.353Z,101214.30
2022-11-30T16:08:29.469Z,101214.39
2022-11-30T16:11:06.186Z,101210.48
2022-11-30T16:13:38.498Z,101210.84
2022-11-30T16:16:14.083Z,101208.52
2022-11-30T16:18:44.906Z,101211.75
2022-11-30T16:21:17.684Z,101213.01
2022-11-30T16:23:49.181Z,101208.09
2022-11-30T16:26:49.527Z,101210.85
2022-11-30T16:29:11.821Z,101214.30
2022-11-30T16:31:42.630Z,101209.27
2022-11-30T16:34:14.119Z,101213.92
2022-11-30T16:36:44.939Z,101215.05
2022-11-30T16:39:15.573Z,101210.52
2022-11-30T16:41:46.333Z,101213.25
2022-11-30T16:44:17.466Z,101213.95
2022-11-30T16:46:48.761Z,101214.63
2022-11-30T16:49:19.424Z,101219.10
2022-11-30T16:51:50.126Z,101218.73
2022-11-30T16:54:20.933Z,101222.95
2022-11-30T16:56:51.703Z,101223.80
2022-11-30T16:59:22.465Z,101223.17
2022-11-30T17:01:53.867Z,101214.89
2022-11-30T17:04:27.006Z,101221.87
2022-11-30T17:07:02.736Z,101226.77
2022-11-30T17:09:34.715Z,101227.41
2022-11-30T17:12:05.667Z,101232.38
2022-11-30T17:14:36.338Z,101231.29
2022-11-30T17:17:07.159Z,101239.20
2022-11-30T17:19:38.832Z,101240.27
2022-11-30T17:22:09.459Z,101241.55
2022-11-30T17:24:40.098Z,101240.20
2022-11-30T17:27:12.058Z,101240.95
2022-11-30T17:29:43.773Z,101242.27
2022-11-30T17:32:14.694Z,101242.33
2022-11-30T17:34:45.605Z,101242.98
2022-11-30T17:37:16.959Z,101248.73
2022-11-30T17:39:47.738Z,101255.10
2022-11-30T17:42:18.449Z,101261.23
2022-11-30T17:44:49.570Z,101264.81
2022-11-30T17:47:22.184Z,101268.59
2022-11-30T17:49:53.394Z,101271.36
2022-11-30T17:52:24.028Z,101277.45
2022-11-30T17:54:54.711Z,101282.88
2022-11-30T17:57:25.417Z,101284.69
2022-11-30T17:59:56.234Z,101281.23
2022-11-30T18:02:26.969Z,101281.08
2022-11-30T18:04:58.348Z,101276.09
2022-11-30T18:07:32.940Z,101280.86
2022-11-30T18:10:08.730Z,101280.41
2022-11-30T18:12:39.734Z,101281.71
2022-11-30T18:15:12.059Z,101284.08
2022-11-30T18:17:42.724Z,101289.13
2022-11-30T18:20:15.057Z,101288.34
2022-11-30T18:22:45.828Z,101286.02
2022-11-30T18:25:31.223Z,101288.02
2022-11-30T18:28:08.486Z,101290.79
2022-11-30T18:30:40.977Z,101292.65
2022-11-30T18:33:11.838Z,101295.69
2022-11-30T18:35:42.511Z,101297.44
2022-11-30T18:38:13.620Z,101302.48
2022-11-30T18:40:44.813Z,101297.80
2022-11-30T18:43:15.777Z,101305.21
2022-11-30T18:45:46.535Z,101308.86
2022-11-30T18:48:17.423Z,101312.19
2022-11-30T18:50:48.261Z,101311.58
2022-11-30T18:53:19.302Z,101315.57
2022-11-30T18:55:50.002Z,101314.98
2022-11-30T18:58:20.734Z,101314.86
2022-11-30T19:00:51.557Z,101323.70
2022-11-30T19:03:22.510Z,101329.86
2022-11-30T19:05:53.310Z,101331.52
2022-11-30T19:08:23.975Z,101335.11
2022-11-30T19:10:54.660Z,101333.84
2022-11-30T19:13:25.454Z,101330.23
2022-11-30T19:15:56.234Z,101333.49
2022-11-30T19:18:27.075Z,101335.14
2022-11-30T19:20:57.827Z,101329.79
2022-11-30T19:23:28.646Z,101331.14
2022-11-30T19:26:03.514Z,101333.79
2022-11-30T19:28:36.573Z,101329.20
2022-11-30T19:31:11.734Z,101336.48
2022-11-30T19:33:44.315Z,101341.76
2022-11-30T19:36:17.037Z,101341.94
2022-11-30T19:38:47.906Z,101339.52
2022-11-30T19:41:19.581Z,101338.84
2022-11-30T19:43:59.594Z,101344.80
2022-11-30T19:46:34.617Z,101344.96
2022-11-30T19:49:08.025Z,101339.38
2022-11-30T19:51:37.131Z,101342.55
2022-11-30T19:54:07.978Z,101345.56
2022-11-30T19:56:41.159Z,101348.47
2022-11-30T19:59:12.073Z,101352.48
2022-11-30T20:01:43.015Z,101352.45
2022-11-30T20:04:14.310Z,101362.92
2022-11-30T20:06:44.986Z,101359.30
2022-11-30T20:09:15.750Z,101360.58
2022-11-30T20:11:46.385Z,101364.31
2022-11-30T20:14:19.711Z,101366.70
2022-11-30T20:16:52.834Z,101363.88
2022-11-30T20:19:22.036Z,101370.86
2022-11-30T20:21:52.973Z,101374.44
2022-11-30T20:24:23.763Z,101377.39
2022-11-30T20:26:54.617Z,101372.54
2022-11-30T20:29:28.898Z,101372.54
2022-11-30T20:32:00.224Z,101377.19
2022-11-30T20:34:34.621Z,101381.30
2022-11-30T20:37:06.782Z,101380.29
2022-11-30T20:39:42.529Z,101383.55
2022-11-30T20:42:16.432Z,101384.44
2022-11-30T20:44:47.743Z,101389.86
2022-11-30T20:47:18.779Z,101395.91
2022-11-30T20:49:49.990Z,101398.77
2022-11-30T20:52:21.082Z,101394.83
2022-11-30T20:54:51.828Z,101399.50
2022-11-30T20:57:22.453Z,101404.50
2022-11-30T20:59:53.324Z,101400.59
2022-11-30T21:02:24.271Z,101401.67
2022-11-30T21:04:55.096Z,101403.93
2022-11-30T21:07:25.887Z,101402.82
2022-11-30T21:09:56.656Z,101401.50
2022-11-30T21:12:27.303Z,101402.34
2022-11-30T21:14:58.007Z,101403.30
2022-11-30T21:17:28.839Z,101402.61
2022-11-30T21:20:00.650Z,101404.78
2022-11-30T21:22:34.711Z,101404.70
2022-11-30T21:25:06.093Z,101405.39
2022-11-30T21:27:36.854Z,101411.73
2022-11-30T21:30:09.953Z,101411.27
2022-11-30T21:32:39.041Z,101414.50
2022-11-30T21:35:11.432Z,101412.69
2022-11-30T21:37:42.061Z,101412.00
2022-11-30T21:40:14.602Z,101412.66
2022-11-30T21:42:45.341Z,101415.64
2022-11-30T21:45:16.110Z,101414.42
2022-11-30T21:47:46.803Z,101418.70
2022-11-30T21:50:19.887Z,101417.82
2022-11-30T21:52:52.596Z,101420.76
2022-11-30T21:55:23.168Z,101426.11
2022-11-30T21:57:56.246Z,101426.55
2022-11-30T22:00:25.615Z,101421.77
2022-11-30T22:02:56.485Z,101426.41
2022-11-30T22:05:27.124Z,101428.02
2022-11-30T22:07:58.043Z,101421.91
2022-11-30T22:10:28.798Z,101420.63
2022-11-30T22:12:59.399Z,101423.44
2022-11-30T22:15:40.411Z,101425.06
2022-11-30T22:25:41.506Z,101427.70
2022-11-30T22:28:19.403Z,101430.11
2022-11-30T22:28:35.933Z,101427.66
2022-11-30T22:31:33.129Z,101428.95
2022-11-30T22:40:14.961Z,101430.14
2022-11-30T22:42:45.729Z,101426.74
2022-11-30T22:45:16.757Z,101422.27
2022-11-30T22:47:47.427Z,101426.21
2022-11-30T22:50:18.275Z,101424.42
2022-11-30T22:53:02.945Z,101427.61
2022-11-30T22:55:33.915Z,101433.23
2022-11-30T22:58:04.667Z,101432.98
2022-11-30T23:00:35.274Z,101431.98
2022-11-30T23:03:06.320Z,101430.38
2022-11-30T23:05:38.338Z,101432.08
2022-11-30T23:08:09.407Z,101432.08
2022-11-30T23:10:40.323Z,101434.50
2022-11-30T23:13:11.099Z,101433.00
2022-11-30T23:15:41.765Z,101426.43
2022-11-30T23:18:12.558Z,101424.63
2022-11-30T23:20:43.149Z,101430.33
2022-11-30T23:23:13.823Z,101432.56
2022-11-30T23:25:44.776Z,101429.92
2022-11-30T23:28:15.526Z,101432.25
2022-11-30T23:30:46.200Z,101426.00
2022-11-30T23:33:16.936Z,101423.77
2022-11-30T23:35:47.494Z,101426.85
2022-11-30T23:38:18.070Z,101421.55
2022-11-30T23:40:48.682Z,101428.34
2022-11-30T23:43:19.353Z,101424.67
2022-11-30T23:45:50.054Z,101423.15
2022-11-30T23:48:20.690Z,101419.36
2022-11-30T23:50:51.291Z,101415.90
2022-11-30T23:53:22.567Z,101411.30
2022-11-30T23:55:53.620Z,101410.70
2022-11-30T23:58:25.339Z,101409.96
